sensor_id;sensor_type;location;lat;lon;timestamp;temperature;humidity
14172;DHT22;7165;52.388;4.928;2023-12-20T00:02:19;8.00;99.90
14172;DHT22;7165;52.388;4.928;2023-12-20T00:04:45;8.00;99.90
14172;DHT22;7165;52.388;4.928;2023-12-20T00:07:12;8.00;99.90
14172;DHT22;7165;52.388;4.928;2023-12-20T00:09:40;8.00;99.90
14172;DHT22;7165;52.388;4.928;2023-12-20T00:12:08;8.00;99.90
14172;DHT22;7165;52.388;4.928;2023-12-20T00:14:34;8.00;99.90
14172;DHT22;7165;52.388;4.928;2023-12-20T00:17:01;8.10;99.90
14172;DHT22;7165;52.388;4.928;2023-12-20T00:19:28;8.10;99.90
14172;DHT22;7165;52.388;4.928;2023-12-20T00:21:55;8.10;99.90
14172;DHT22;7165;52.388;4.928;2023-12-20T00:24:21;8.00;99.90
14172;DHT22;7165;52.388;4.928;2023-12-20T00:26:49;8.10;99.90
14172;DHT22;7165;52.388;4.928;2023-12-20T00:29:16;8.10;99.90
14172;DHT22;7165;52.388;4.928;2023-12-20T00:31:43;8.10;99.90
14172;DHT22;7165;52.388;4.928;2023-12-20T00:34:10;8.00;99.90
14172;DHT22;7165;52.388;4.928;2023-12-20T00:36:37;8.00;99.90
14172;DHT22;7165;52.388;4.928;2023-12-20T00:39:04;8.00;99.90
14172;DHT22;7165;52.388;4.928;2023-12-20T00:41:32;7.90;99.90
14172;DHT22;7165;52.388;4.928;2023-12-20T00:44:00;7.90;99.90
14172;DHT22;7165;52.388;4.928;2023-12-20T00:46:27;8.00;99.90
14172;DHT22;7165;52.388;4.928;2023-12-20T00:48:54;8.00;99.90
14172;DHT22;7165;52.388;4.928;2023-12-20T00:51:20;8.10;99.90
14172;DHT22;7165;52.388;4.928;2023-12-20T00:53:48;8.10;99.90
14172;DHT22;7165;52.388;4.928;2023-12-20T00:56:14;8.10;99.90
14172;DHT22;7165;52.388;4.928;2023-12-20T00:58:41;8.10;99.90
14172;DHT22;7165;52.388;4.928;2023-12-20T01:01:09;8.10;99.90
14172;DHT22;7165;52.388;4.928;2023-12-20T01:03:36;8.10;99.90
14172;DHT22;7165;52.388;4.928;2023-12-20T01:06:02;8.10;99.90
14172;DHT22;7165;52.388;4.928;2023-12-20T01:08:30;8.10;99.90
14172;DHT22;7165;52.388;4.928;2023-12-20T01:10:56;8.20;99.90
14172;DHT22;7165;52.388;4.928;2023-12-20T01:13:23;8.20;99.90
14172;DHT22;7165;52.388;4.928;2023-12-20T01:15:50;8.10;99.90
14172;DHT22;7165;52.388;4.928;2023-12-20T01:18:18;8.10;99.90
14172;DHT22;7165;52.388;4.928;2023-12-20T01:20:45;8.10;99.90
14172;DHT22;7165;52.388;4.928;2023-12-20T01:23:11;8.10;99.90
14172;DHT22;7165;52.388;4.928;2023-12-20T01:25:39;8.10;99.90
14172;DHT22;7165;52.388;4.928;2023-12-20T01:28:06;8.10;99.90
14172;DHT22;7165;52.388;4.928;2023-12-20T01:30:32;8.10;99.90
14172;DHT22;7165;52.388;4.928;2023-12-20T01:33:00;8.10;99.90
14172;DHT22;7165;52.388;4.928;2023-12-20T01:35:28;8.10;99.90
14172;DHT22;7165;52.388;4.928;2023-12-20T01:37:55;8.10;99.90
14172;DHT22;7165;52.388;4.928;2023-12-20T01:40:22;8.20;99.90
14172;DHT22;7165;52.388;4.928;2023-12-20T01:42:58;8.20;99.90
14172;DHT22;7165;52.388;4.928;2023-12-20T01:45:25;8.20;99.90
14172;DHT22;7165;52.388;4.928;2023-12-20T01:47:52;8.30;99.90
14172;DHT22;7165;52.388;4.928;2023-12-20T01:50:19;8.30;99.90
14172;DHT22;7165;52.388;4.928;2023-12-20T01:52:48;8.30;99.90
14172;DHT22;7165;52.388;4.928;2023-12-20T01:55:17;8.30;99.90
14172;DHT22;7165;52.388;4.928;2023-12-20T01:57:45;8.30;99.90
14172;DHT22;7165;52.388;4.928;2023-12-20T02:00:13;8.30;99.90
14172;DHT22;7165;52.388;4.928;2023-12-20T02:02:41;8.30;99.90
14172;DHT22;7165;52.388;4.928;2023-12-20T02:05:08;8.30;99.90
14172;DHT22;7165;52.388;4.928;2023-12-20T02:07:35;8.30;99.90
14172;DHT22;7165;52.388;4.928;2023-12-20T02:10:04;8.30;99.90
14172;DHT22;7165;52.388;4.928;2023-12-20T02:12:31;8.30;99.90
14172;DHT22;7165;52.388;4.928;2023-12-20T02:14:58;8.40;99.90
14172;DHT22;7165;52.388;4.928;2023-12-20T02:17:25;8.40;99.90
14172;DHT22;7165;52.388;4.928;2023-12-20T02:19:52;8.40;99.90
14172;DHT22;7165;52.388;4.928;2023-12-20T02:22:20;8.40;99.90
14172;DHT22;7165;52.388;4.928;2023-12-20T02:24:47;8.40;99.90
14172;DHT22;7165;52.388;4.928;2023-12-20T02:27:15;8.40;99.90
14172;DHT22;7165;52.388;4.928;2023-12-20T02:29:44;8.40;99.90
14172;DHT22;7165;52.388;4.928;2023-12-20T02:32:12;8.40;99.90
14172;DHT22;7165;52.388;4.928;2023-12-20T02:34:38;8.40;99.90
14172;DHT22;7165;52.388;4.928;2023-12-20T02:37:05;8.40;99.90
14172;DHT22;7165;52.388;4.928;2023-12-20T02:39:33;8.50;99.90
14172;DHT22;7165;52.388;4.928;2023-12-20T02:42:00;8.50;99.90
14172;DHT22;7165;52.388;4.928;2023-12-20T02:44:27;8.50;99.90
14172;DHT22;7165;52.388;4.928;2023-12-20T02:46:54;8.50;99.90
14172;DHT22;7165;52.388;4.928;2023-12-20T02:49:20;8.50;99.90
14172;DHT22;7165;52.388;4.928;2023-12-20T02:51:47;8.50;99.90
14172;DHT22;7165;52.388;4.928;2023-12-20T02:54:14;8.50;99.90
14172;DHT22;7165;52.388;4.928;2023-12-20T02:56:42;8.50;99.90
14172;DHT22;7165;52.388;4.928;2023-12-20T02:59:09;8.50;99.90
14172;DHT22;7165;52.388;4.928;2023-12-20T03:01:41;8.50;99.90
14172;DHT22;7165;52.388;4.928;2023-12-20T03:04:08;8.50;99.90
14172;DHT22;7165;52.388;4.928;2023-12-20T03:06:35;8.60;99.90
14172;DHT22;7165;52.388;4.928;2023-12-20T03:09:02;8.60;99.90
14172;DHT22;7165;52.388;4.928;2023-12-20T03:11:29;8.50;99.90
14172;DHT22;7165;52.388;4.928;2023-12-20T03:13:58;8.40;99.90
14172;DHT22;7165;52.388;4.928;2023-12-20T03:16:25;8.40;99.90
14172;DHT22;7165;52.388;4.928;2023-12-20T03:18:51;8.30;99.90
14172;DHT22;7165;52.388;4.928;2023-12-20T03:21:18;8.30;99.90
14172;DHT22;7165;52.388;4.928;2023-12-20T03:23:45;8.30;99.90
14172;DHT22;7165;52.388;4.928;2023-12-20T03:26:12;8.20;99.90
14172;DHT22;7165;52.388;4.928;2023-12-20T03:28:38;8.20;99.90
14172;DHT22;7165;52.388;4.928;2023-12-20T03:31:06;8.20;99.90
14172;DHT22;7165;52.388;4.928;2023-12-20T03:33:33;8.20;99.90
14172;DHT22;7165;52.388;4.928;2023-12-20T03:36:00;8.20;99.90
14172;DHT22;7165;52.388;4.928;2023-12-20T03:38:27;8.20;99.90
14172;DHT22;7165;52.388;4.928;2023-12-20T03:40:53;8.30;99.90
14172;DHT22;7165;52.388;4.928;2023-12-20T03:43:20;8.30;99.90
14172;DHT22;7165;52.388;4.928;2023-12-20T03:45:47;8.30;99.90
14172;DHT22;7165;52.388;4.928;2023-12-20T03:48:15;8.30;99.90
14172;DHT22;7165;52.388;4.928;2023-12-20T03:50:42;8.30;99.90
14172;DHT22;7165;52.388;4.928;2023-12-20T03:53:08;8.30;99.90
14172;DHT22;7165;52.388;4.928;2023-12-20T03:55:35;8.40;99.90
14172;DHT22;7165;52.388;4.928;2023-12-20T03:58:02;8.40;99.90
14172;DHT22;7165;52.388;4.928;2023-12-20T04:00:29;8.40;99.90
14172;DHT22;7165;52.388;4.928;2023-12-20T04:02:56;8.40;99.90
14172;DHT22;7165;52.388;4.928;2023-12-20T04:05:24;8.40;99.90
14172;DHT22;7165;52.388;4.928;2023-12-20T04:07:51;8.40;99.90
14172;DHT22;7165;52.388;4.928;2023-12-20T04:10:17;8.40;99.90
14172;DHT22;7165;52.388;4.928;2023-12-20T04:12:44;8.40;99.90
14172;DHT22;7165;52.388;4.928;2023-12-20T04:15:11;8.40;99.90
14172;DHT22;7165;52.388;4.928;2023-12-20T04:17:38;8.40;99.90
14172;DHT22;7165;52.388;4.928;2023-12-20T04:20:06;8.50;99.90
14172;DHT22;7165;52.388;4.928;2023-12-20T04:22:34;8.40;99.90
14172;DHT22;7165;52.388;4.928;2023-12-20T04:25:01;8.40;99.90
14172;DHT22;7165;52.388;4.928;2023-12-20T04:27:28;8.40;99.90
14172;DHT22;7165;52.388;4.928;2023-12-20T04:29:55;8.50;99.90
14172;DHT22;7165;52.388;4.928;2023-12-20T04:32:22;8.50;99.90
14172;DHT22;7165;52.388;4.928;2023-12-20T04:34:49;8.50;99.90
14172;DHT22;7165;52.388;4.928;2023-12-20T04:37:15;8.50;99.90
14172;DHT22;7165;52.388;4.928;2023-12-20T04:39:44;8.50;99.90
14172;DHT22;7165;52.388;4.928;2023-12-20T04:42:10;8.50;99.90
14172;DHT22;7165;52.388;4.928;2023-12-20T04:44:37;8.50;99.90
14172;DHT22;7165;52.388;4.928;2023-12-20T04:47:04;8.50;99.90
14172;DHT22;7165;52.388;4.928;2023-12-20T04:49:31;8.50;99.90
14172;DHT22;7165;52.388;4.928;2023-12-20T04:51:57;8.50;99.90
14172;DHT22;7165;52.388;4.928;2023-12-20T04:54:24;8.60;99.90
14172;DHT22;7165;52.388;4.928;2023-12-20T04:56:52;8.60;99.90
14172;DHT22;7165;52.388;4.928;2023-12-20T04:59:19;8.60;99.90
14172;DHT22;7165;52.388;4.928;2023-12-20T05:01:46;8.60;99.90
14172;DHT22;7165;52.388;4.928;2023-12-20T05:04:12;8.60;99.90
14172;DHT22;7165;52.388;4.928;2023-12-20T05:06:39;8.60;99.90
14172;DHT22;7165;52.388;4.928;2023-12-20T05:09:06;8.60;99.90
14172;DHT22;7165;52.388;4.928;2023-12-20T05:11:34;8.60;99.90
14172;DHT22;7165;52.388;4.928;2023-12-20T05:14:02;8.60;99.90
14172;DHT22;7165;52.388;4.928;2023-12-20T05:16:29;8.60;99.90
14172;DHT22;7165;52.388;4.928;2023-12-20T05:18:56;8.60;99.90
14172;DHT22;7165;52.388;4.928;2023-12-20T05:21:24;8.60;99.90
14172;DHT22;7165;52.388;4.928;2023-12-20T05:23:50;8.60;99.90
14172;DHT22;7165;52.388;4.928;2023-12-20T05:26:17;8.60;99.90
14172;DHT22;7165;52.388;4.928;2023-12-20T05:28:44;8.60;99.90
14172;DHT22;7165;52.388;4.928;2023-12-20T05:31:12;8.60;99.90
14172;DHT22;7165;52.388;4.928;2023-12-20T05:33:39;8.70;99.90
14172;DHT22;7165;52.388;4.928;2023-12-20T05:36:06;8.70;99.90
14172;DHT22;7165;52.388;4.928;2023-12-20T05:38:36;8.70;99.90
14172;DHT22;7165;52.388;4.928;2023-12-20T05:41:03;8.70;99.90
14172;DHT22;7165;52.388;4.928;2023-12-20T05:43:30;8.80;99.90
14172;DHT22;7165;52.388;4.928;2023-12-20T05:45:57;8.80;99.90
14172;DHT22;7165;52.388;4.928;2023-12-20T05:48:25;8.80;99.90
14172;DHT22;7165;52.388;4.928;2023-12-20T05:50:51;8.80;99.90
14172;DHT22;7165;52.388;4.928;2023-12-20T05:53:18;8.80;99.90
14172;DHT22;7165;52.388;4.928;2023-12-20T05:55:45;8.80;99.90
14172;DHT22;7165;52.388;4.928;2023-12-20T05:58:12;8.80;99.90
14172;DHT22;7165;52.388;4.928;2023-12-20T06:00:39;8.80;99.90
14172;DHT22;7165;52.388;4.928;2023-12-20T06:03:05;8.80;99.90
14172;DHT22;7165;52.388;4.928;2023-12-20T06:05:34;8.80;99.90
14172;DHT22;7165;52.388;4.928;2023-12-20T06:08:00;8.90;99.90
14172;DHT22;7165;52.388;4.928;2023-12-20T06:10:28;8.80;99.90
14172;DHT22;7165;52.388;4.928;2023-12-20T06:12:55;8.80;99.90
14172;DHT22;7165;52.388;4.928;2023-12-20T06:15:24;8.90;99.90
14172;DHT22;7165;52.388;4.928;2023-12-20T06:17:50;8.90;99.90
14172;DHT22;7165;52.388;4.928;2023-12-20T06:20:17;8.90;99.90
14172;DHT22;7165;52.388;4.928;2023-12-20T06:22:45;8.90;99.90
14172;DHT22;7165;52.388;4.928;2023-12-20T06:25:12;8.90;99.90
14172;DHT22;7165;52.388;4.928;2023-12-20T06:27:39;8.90;99.90
14172;DHT22;7165;52.388;4.928;2023-12-20T06:30:07;8.90;99.90
14172;DHT22;7165;52.388;4.928;2023-12-20T06:32:35;8.90;99.90
14172;DHT22;7165;52.388;4.928;2023-12-20T06:35:03;8.90;99.90
14172;DHT22;7165;52.388;4.928;2023-12-20T06:37:31;8.90;99.90
14172;DHT22;7165;52.388;4.928;2023-12-20T06:39:59;8.90;99.90
14172;DHT22;7165;52.388;4.928;2023-12-20T06:42:26;8.90;99.90
14172;DHT22;7165;52.388;4.928;2023-12-20T06:44:53;8.90;99.90
14172;DHT22;7165;52.388;4.928;2023-12-20T06:47:19;8.90;99.90
14172;DHT22;7165;52.388;4.928;2023-12-20T06:49:46;8.90;99.90
14172;DHT22;7165;52.388;4.928;2023-12-20T06:52:13;8.90;99.90
14172;DHT22;7165;52.388;4.928;2023-12-20T06:54:40;8.90;99.90
14172;DHT22;7165;52.388;4.928;2023-12-20T06:57:08;8.90;99.90
14172;DHT22;7165;52.388;4.928;2023-12-20T06:59:38;8.90;99.90
14172;DHT22;7165;52.388;4.928;2023-12-20T07:02:05;8.90;99.90
14172;DHT22;7165;52.388;4.928;2023-12-20T07:04:32;8.90;99.90
14172;DHT22;7165;52.388;4.928;2023-12-20T07:06:59;8.90;99.90
14172;DHT22;7165;52.388;4.928;2023-12-20T07:09:26;8.90;99.90
14172;DHT22;7165;52.388;4.928;2023-12-20T07:11:52;8.90;99.90
14172;DHT22;7165;52.388;4.928;2023-12-20T07:14:21;9.00;99.90
14172;DHT22;7165;52.388;4.928;2023-12-20T07:16:48;9.00;99.90
14172;DHT22;7165;52.388;4.928;2023-12-20T07:19:14;9.00;99.90
14172;DHT22;7165;52.388;4.928;2023-12-20T07:21:41;9.00;99.90
14172;DHT22;7165;52.388;4.928;2023-12-20T07:24:08;9.00;99.90
14172;DHT22;7165;52.388;4.928;2023-12-20T07:26:35;9.00;99.90
14172;DHT22;7165;52.388;4.928;2023-12-20T07:29:03;9.00;99.90
14172;DHT22;7165;52.388;4.928;2023-12-20T07:31:31;9.00;99.90
14172;DHT22;7165;52.388;4.928;2023-12-20T07:33:58;9.00;99.90
14172;DHT22;7165;52.388;4.928;2023-12-20T07:36:24;9.00;99.90
14172;DHT22;7165;52.388;4.928;2023-12-20T07:38:51;9.00;99.90
14172;DHT22;7165;52.388;4.928;2023-12-20T07:41:18;9.10;99.90
14172;DHT22;7165;52.388;4.928;2023-12-20T07:43:46;9.00;99.90
14172;DHT22;7165;52.388;4.928;2023-12-20T07:46:13;9.10;99.90
14172;DHT22;7165;52.388;4.928;2023-12-20T07:48:41;9.10;99.90
14172;DHT22;7165;52.388;4.928;2023-12-20T07:51:08;9.10;99.90
14172;DHT22;7165;52.388;4.928;2023-12-20T07:53:35;9.10;99.90
14172;DHT22;7165;52.388;4.928;2023-12-20T07:56:13;9.10;99.90
14172;DHT22;7165;52.388;4.928;2023-12-20T07:58:40;9.10;99.90
14172;DHT22;7165;52.388;4.928;2023-12-20T08:01:06;9.10;99.90
14172;DHT22;7165;52.388;4.928;2023-12-20T08:03:33;9.20;99.90
14172;DHT22;7165;52.388;4.928;2023-12-20T08:06:02;9.20;99.90
14172;DHT22;7165;52.388;4.928;2023-12-20T08:08:29;9.20;99.90
14172;DHT22;7165;52.388;4.928;2023-12-20T08:10:55;9.20;99.90
14172;DHT22;7165;52.388;4.928;2023-12-20T08:13:24;9.20;99.90
14172;DHT22;7165;52.388;4.928;2023-12-20T08:15:51;9.30;99.90
14172;DHT22;7165;52.388;4.928;2023-12-20T08:18:18;9.30;99.90
14172;DHT22;7165;52.388;4.928;2023-12-20T08:20:45;9.30;99.90
14172;DHT22;7165;52.388;4.928;2023-12-20T08:23:14;9.30;99.90
14172;DHT22;7165;52.388;4.928;2023-12-20T08:25:41;9.40;99.90
14172;DHT22;7165;52.388;4.928;2023-12-20T08:28:08;9.40;99.90
14172;DHT22;7165;52.388;4.928;2023-12-20T08:30:35;9.40;99.90
14172;DHT22;7165;52.388;4.928;2023-12-20T08:33:02;9.50;99.90
14172;DHT22;7165;52.388;4.928;2023-12-20T08:35:29;9.50;99.90
14172;DHT22;7165;52.388;4.928;2023-12-20T08:37:56;9.50;99.90
14172;DHT22;7165;52.388;4.928;2023-12-20T08:40:24;9.50;99.90
14172;DHT22;7165;52.388;4.928;2023-12-20T08:42:51;9.50;99.90
14172;DHT22;7165;52.388;4.928;2023-12-20T08:45:18;9.50;99.90
14172;DHT22;7165;52.388;4.928;2023-12-20T08:47:45;9.50;99.90
14172;DHT22;7165;52.388;4.928;2023-12-20T08:50:12;9.50;99.90
14172;DHT22;7165;52.388;4.928;2023-12-20T08:52:39;9.50;99.90
14172;DHT22;7165;52.388;4.928;2023-12-20T08:55:06;9.50;99.90
14172;DHT22;7165;52.388;4.928;2023-12-20T08:57:34;9.50;99.90
14172;DHT22;7165;52.388;4.928;2023-12-20T09:00:01;9.50;99.90
14172;DHT22;7165;52.388;4.928;2023-12-20T09:02:28;9.50;99.90
14172;DHT22;7165;52.388;4.928;2023-12-20T09:04:55;9.50;99.90
14172;DHT22;7165;52.388;4.928;2023-12-20T09:07:22;9.40;99.90
14172;DHT22;7165;52.388;4.928;2023-12-20T09:09:49;9.40;99.90
14172;DHT22;7165;52.388;4.928;2023-12-20T09:12:17;9.40;99.90
14172;DHT22;7165;52.388;4.928;2023-12-20T09:14:46;9.40;99.90
14172;DHT22;7165;52.388;4.928;2023-12-20T09:17:13;9.30;99.90
14172;DHT22;7165;52.388;4.928;2023-12-20T09:19:39;9.40;99.90
14172;DHT22;7165;52.388;4.928;2023-12-20T09:22:06;9.40;99.90
14172;DHT22;7165;52.388;4.928;2023-12-20T09:24:33;9.40;99.90
14172;DHT22;7165;52.388;4.928;2023-12-20T09:27:00;9.40;99.90
14172;DHT22;7165;52.388;4.928;2023-12-20T09:29:27;9.50;99.90
14172;DHT22;7165;52.388;4.928;2023-12-20T09:31:55;9.40;99.90
14172;DHT22;7165;52.388;4.928;2023-12-20T09:34:23;9.40;99.90
14172;DHT22;7165;52.388;4.928;2023-12-20T09:36:51;9.40;99.90
14172;DHT22;7165;52.388;4.928;2023-12-20T09:39:18;9.50;99.90
14172;DHT22;7165;52.388;4.928;2023-12-20T09:41:56;9.40;99.90
14172;DHT22;7165;52.388;4.928;2023-12-20T09:44:26;9.50;99.90
14172;DHT22;7165;52.388;4.928;2023-12-20T09:46:57;9.50;99.90
14172;DHT22;7165;52.388;4.928;2023-12-20T09:49:25;9.50;99.90
14172;DHT22;7165;52.388;4.928;2023-12-20T09:51:54;9.50;99.90
14172;DHT22;7165;52.388;4.928;2023-12-20T09:54:22;9.50;99.90
14172;DHT22;7165;52.388;4.928;2023-12-20T09:56:49;9.50;99.90
14172;DHT22;7165;52.388;4.928;2023-12-20T09:59:16;9.50;99.90
14172;DHT22;7165;52.388;4.928;2023-12-20T10:01:43;9.50;99.90
14172;DHT22;7165;52.388;4.928;2023-12-20T10:04:13;9.50;99.90
14172;DHT22;7165;52.388;4.928;2023-12-20T10:06:40;9.60;99.90
14172;DHT22;7165;52.388;4.928;2023-12-20T10:09:07;9.70;99.90
14172;DHT22;7165;52.388;4.928;2023-12-20T10:11:35;9.80;99.90
14172;DHT22;7165;52.388;4.928;2023-12-20T10:14:03;9.80;99.90
14172;DHT22;7165;52.388;4.928;2023-12-20T10:16:30;9.90;99.90
14172;DHT22;7165;52.388;4.928;2023-12-20T10:18:58;9.90;99.90
14172;DHT22;7165;52.388;4.928;2023-12-20T10:21:27;10.00;99.90
14172;DHT22;7165;52.388;4.928;2023-12-20T10:23:54;10.10;99.90
14172;DHT22;7165;52.388;4.928;2023-12-20T10:26:22;10.20;99.90
14172;DHT22;7165;52.388;4.928;2023-12-20T10:28:50;10.30;99.90
14172;DHT22;7165;52.388;4.928;2023-12-20T10:31:28;10.40;99.90
14172;DHT22;7165;52.388;4.928;2023-12-20T10:33:56;10.40;99.90
14172;DHT22;7165;52.388;4.928;2023-12-20T10:36:26;10.50;99.90
14172;DHT22;7165;52.388;4.928;2023-12-20T10:38:55;10.50;99.90
14172;DHT22;7165;52.388;4.928;2023-12-20T10:41:25;10.40;99.90
14172;DHT22;7165;52.388;4.928;2023-12-20T10:43:54;10.40;99.90
14172;DHT22;7165;52.388;4.928;2023-12-20T10:46:21;10.40;99.90
14172;DHT22;7165;52.388;4.928;2023-12-20T10:48:51;10.40;99.90
14172;DHT22;7165;52.388;4.928;2023-12-20T10:51:18;10.40;99.90
14172;DHT22;7165;52.388;4.928;2023-12-20T10:53:47;10.40;99.90
14172;DHT22;7165;52.388;4.928;2023-12-20T10:56:16;10.40;99.90
14172;DHT22;7165;52.388;4.928;2023-12-20T10:58:45;10.40;99.90
14172;DHT22;7165;52.388;4.928;2023-12-20T11:01:13;10.50;99.90
14172;DHT22;7165;52.388;4.928;2023-12-20T11:03:44;10.50;99.90
14172;DHT22;7165;52.388;4.928;2023-12-20T11:06:26;10.50;99.90
14172;DHT22;7165;52.388;4.928;2023-12-20T11:09:01;10.40;99.90
14172;DHT22;7165;52.388;4.928;2023-12-20T11:11:39;10.30;99.90
14172;DHT22;7165;52.388;4.928;2023-12-20T11:14:13;10.30;99.90
14172;DHT22;7165;52.388;4.928;2023-12-20T11:16:41;10.30;99.90
14172;DHT22;7165;52.388;4.928;2023-12-20T11:19:08;10.30;99.90
14172;DHT22;7165;52.388;4.928;2023-12-20T11:21:39;10.30;99.90
14172;DHT22;7165;52.388;4.928;2023-12-20T11:24:07;10.30;99.90
14172;DHT22;7165;52.388;4.928;2023-12-20T11:26:34;10.30;99.90
14172;DHT22;7165;52.388;4.928;2023-12-20T11:29:29;10.30;99.90
14172;DHT22;7165;52.388;4.928;2023-12-20T11:31:56;10.20;99.90
14172;DHT22;7165;52.388;4.928;2023-12-20T11:34:27;10.20;99.90
14172;DHT22;7165;52.388;4.928;2023-12-20T11:36:57;10.20;99.90
14172;DHT22;7165;52.388;4.928;2023-12-20T11:39:26;10.20;99.90
14172;DHT22;7165;52.388;4.928;2023-12-20T11:41:55;10.20;99.90
14172;DHT22;7165;52.388;4.928;2023-12-20T11:44:23;10.20;99.90
14172;DHT22;7165;52.388;4.928;2023-12-20T11:46:55;10.20;99.90
14172;DHT22;7165;52.388;4.928;2023-12-20T11:49:25;10.20;99.90
14172;DHT22;7165;52.388;4.928;2023-12-20T11:51:51;10.30;99.90
14172;DHT22;7165;52.388;4.928;2023-12-20T11:54:18;10.20;99.90
14172;DHT22;7165;52.388;4.928;2023-12-20T11:56:47;10.20;99.90
14172;DHT22;7165;52.388;4.928;2023-12-20T11:59:14;10.20;99.90
14172;DHT22;7165;52.388;4.928;2023-12-20T12:01:48;10.20;99.90
14172;DHT22;7165;52.388;4.928;2023-12-20T12:04:14;10.20;99.90
14172;DHT22;7165;52.388;4.928;2023-12-20T12:06:43;10.20;99.90
14172;DHT22;7165;52.388;4.928;2023-12-20T12:09:09;10.20;99.90
14172;DHT22;7165;52.388;4.928;2023-12-20T12:11:37;10.20;99.90
14172;DHT22;7165;52.388;4.928;2023-12-20T12:14:06;10.20;99.90
14172;DHT22;7165;52.388;4.928;2023-12-20T12:16:33;10.20;99.90
14172;DHT22;7165;52.388;4.928;2023-12-20T12:19:00;10.20;99.90
14172;DHT22;7165;52.388;4.928;2023-12-20T12:21:27;10.20;99.90
14172;DHT22;7165;52.388;4.928;2023-12-20T12:23:53;10.20;99.90
14172;DHT22;7165;52.388;4.928;2023-12-20T12:26:20;10.20;99.90
14172;DHT22;7165;52.388;4.928;2023-12-20T12:28:47;10.20;99.90
14172;DHT22;7165;52.388;4.928;2023-12-20T12:31:15;10.30;99.90
14172;DHT22;7165;52.388;4.928;2023-12-20T12:33:42;10.30;99.90
14172;DHT22;7165;52.388;4.928;2023-12-20T12:36:09;10.30;99.90
14172;DHT22;7165;52.388;4.928;2023-12-20T12:38:36;10.30;99.90
14172;DHT22;7165;52.388;4.928;2023-12-20T12:41:04;10.30;99.90
14172;DHT22;7165;52.388;4.928;2023-12-20T12:43:32;10.20;99.90
14172;DHT22;7165;52.388;4.928;2023-12-20T12:45:59;10.20;99.90
14172;DHT22;7165;52.388;4.928;2023-12-20T12:48:27;10.20;99.90
14172;DHT22;7165;52.388;4.928;2023-12-20T12:50:54;10.10;99.90
14172;DHT22;7165;52.388;4.928;2023-12-20T12:53:24;10.10;99.90
14172;DHT22;7165;52.388;4.928;2023-12-20T12:55:52;10.20;99.90
14172;DHT22;7165;52.388;4.928;2023-12-20T12:58:19;10.20;99.90
14172;DHT22;7165;52.388;4.928;2023-12-20T13:00:45;10.10;99.90
14172;DHT22;7165;52.388;4.928;2023-12-20T13:03:12;10.10;99.90
14172;DHT22;7165;52.388;4.928;2023-12-20T13:05:40;10.10;99.90
14172;DHT22;7165;52.388;4.928;2023-12-20T13:08:07;10.10;99.90
14172;DHT22;7165;52.388;4.928;2023-12-20T13:10:35;10.10;99.90
14172;DHT22;7165;52.388;4.928;2023-12-20T13:13:03;10.10;99.90
14172;DHT22;7165;52.388;4.928;2023-12-20T13:15:30;10.10;99.90
14172;DHT22;7165;52.388;4.928;2023-12-20T13:17:57;10.10;99.90
14172;DHT22;7165;52.388;4.928;2023-12-20T13:20:24;10.10;99.90
14172;DHT22;7165;52.388;4.928;2023-12-20T13:22:52;10.10;99.90
14172;DHT22;7165;52.388;4.928;2023-12-20T13:25:18;10.10;99.90
14172;DHT22;7165;52.388;4.928;2023-12-20T13:27:44;10.10;99.90
14172;DHT22;7165;52.388;4.928;2023-12-20T13:30:12;10.10;99.90
14172;DHT22;7165;52.388;4.928;2023-12-20T13:32:39;10.10;99.90
14172;DHT22;7165;52.388;4.928;2023-12-20T13:35:06;10.10;99.90
14172;DHT22;7165;52.388;4.928;2023-12-20T13:37:33;10.00;99.90
14172;DHT22;7165;52.388;4.928;2023-12-20T13:40:01;10.00;99.90
14172;DHT22;7165;52.388;4.928;2023-12-20T13:42:28;10.00;99.90
14172;DHT22;7165;52.388;4.928;2023-12-20T13:44:55;10.10;99.90
14172;DHT22;7165;52.388;4.928;2023-12-20T13:47:22;10.00;99.90
14172;DHT22;7165;52.388;4.928;2023-12-20T13:49:49;10.00;99.90
14172;DHT22;7165;52.388;4.928;2023-12-20T13:52:15;10.00;99.90
14172;DHT22;7165;52.388;4.928;2023-12-20T13:54:42;10.10;99.90
14172;DHT22;7165;52.388;4.928;2023-12-20T13:57:10;10.10;99.90
14172;DHT22;7165;52.388;4.928;2023-12-20T13:59:37;10.00;99.90
14172;DHT22;7165;52.388;4.928;2023-12-20T14:02:04;10.00;99.90
14172;DHT22;7165;52.388;4.928;2023-12-20T14:04:31;10.00;99.90
14172;DHT22;7165;52.388;4.928;2023-12-20T14:06:58;10.00;99.90
14172;DHT22;7165;52.388;4.928;2023-12-20T14:09:25;10.00;99.90
14172;DHT22;7165;52.388;4.928;2023-12-20T14:11:51;10.00;99.90
14172;DHT22;7165;52.388;4.928;2023-12-20T14:14:20;10.00;99.90
14172;DHT22;7165;52.388;4.928;2023-12-20T14:16:46;10.00;99.90
14172;DHT22;7165;52.388;4.928;2023-12-20T14:19:13;10.00;99.90
14172;DHT22;7165;52.388;4.928;2023-12-20T14:21:40;10.00;99.90
14172;DHT22;7165;52.388;4.928;2023-12-20T14:24:07;10.00;99.90
14172;DHT22;7165;52.388;4.928;2023-12-20T14:26:34;10.00;99.90
14172;DHT22;7165;52.388;4.928;2023-12-20T14:29:02;10.10;99.90
14172;DHT22;7165;52.388;4.928;2023-12-20T14:31:31;10.00;99.90
14172;DHT22;7165;52.388;4.928;2023-12-20T14:33:58;10.00;99.90
14172;DHT22;7165;52.388;4.928;2023-12-20T14:36:25;10.00;99.90
14172;DHT22;7165;52.388;4.928;2023-12-20T14:38:51;10.00;99.90
14172;DHT22;7165;52.388;4.928;2023-12-20T14:41:18;10.00;99.90
14172;DHT22;7165;52.388;4.928;2023-12-20T14:43:45;10.00;99.90
14172;DHT22;7165;52.388;4.928;2023-12-20T14:46:13;10.00;99.90
14172;DHT22;7165;52.388;4.928;2023-12-20T14:48:42;10.00;99.90
14172;DHT22;7165;52.388;4.928;2023-12-20T14:51:09;10.00;99.90
14172;DHT22;7165;52.388;4.928;2023-12-20T14:53:36;10.00;99.90
14172;DHT22;7165;52.388;4.928;2023-12-20T14:56:03;10.00;99.90
14172;DHT22;7165;52.388;4.928;2023-12-20T14:58:31;10.00;99.90
14172;DHT22;7165;52.388;4.928;2023-12-20T15:00:59;10.00;99.90
14172;DHT22;7165;52.388;4.928;2023-12-20T15:03:26;10.00;99.90
14172;DHT22;7165;52.388;4.928;2023-12-20T15:05:55;10.00;99.90
14172;DHT22;7165;52.388;4.928;2023-12-20T15:08:25;10.00;99.90
14172;DHT22;7165;52.388;4.928;2023-12-20T15:10:52;10.00;99.90
14172;DHT22;7165;52.388;4.928;2023-12-20T15:13:19;10.00;99.90
14172;DHT22;7165;52.388;4.928;2023-12-20T15:15:46;10.00;99.90
14172;DHT22;7165;52.388;4.928;2023-12-20T15:18:13;10.00;99.90
14172;DHT22;7165;52.388;4.928;2023-12-20T15:20:40;9.90;99.90
14172;DHT22;7165;52.388;4.928;2023-12-20T15:23:10;9.90;99.90
14172;DHT22;7165;52.388;4.928;2023-12-20T15:25:37;9.90;99.90
14172;DHT22;7165;52.388;4.928;2023-12-20T15:28:04;9.90;99.90
14172;DHT22;7165;52.388;4.928;2023-12-20T15:30:31;9.90;99.90
14172;DHT22;7165;52.388;4.928;2023-12-20T15:32:59;9.90;99.90
14172;DHT22;7165;52.388;4.928;2023-12-20T15:35:29;9.90;99.90
14172;DHT22;7165;52.388;4.928;2023-12-20T15:37:56;9.80;99.90
14172;DHT22;7165;52.388;4.928;2023-12-20T15:40:25;9.80;99.90
14172;DHT22;7165;52.388;4.928;2023-12-20T15:42:52;9.80;99.90
14172;DHT22;7165;52.388;4.928;2023-12-20T15:45:19;9.80;99.90
14172;DHT22;7165;52.388;4.928;2023-12-20T15:47:46;9.80;99.90
14172;DHT22;7165;52.388;4.928;2023-12-20T15:50:13;9.80;99.90
14172;DHT22;7165;52.388;4.928;2023-12-20T15:52:40;9.80;99.90
14172;DHT22;7165;52.388;4.928;2023-12-20T15:55:09;9.80;99.90
14172;DHT22;7165;52.388;4.928;2023-12-20T15:57:37;9.70;99.90
14172;DHT22;7165;52.388;4.928;2023-12-20T16:00:06;9.70;99.90